Time,TemperatureF,DewpointF,PressureIn,WindDirection,WindDirectionDegrees,WindSpeedMPH,WindSpeedGustMPH,Humidity,HourlyPrecipIn,Conditions,Clouds,dailyrainin,SoftwareType,DateUTC
2018-01-16 00:05:00,15.6,10.8,30.51,West,273,10.0,10.0,81,0.00,,,0.00,Wunderground v.1.15,2018-01-16 05:05:00,
2018-01-16 00:10:00,15.5,10.7,30.51,WNW,296,3.0,6.0,81,0.00,,,0.00,Wunderground v.1.15,2018-01-16 05:10:00,
2018-01-16 00:15:00,15.3,10.8,30.51,NNW,334,4.0,8.0,82,0.00,,,0.00,Wunderground v.1.15,2018-01-16 05:15:00,
2018-01-16 00:23:00,15.0,10.5,30.52,WNW,293,12.0,12.0,82,0.00,,,0.00,Wunderground v.1.15,2018-01-16 05:23:00,
2018-01-16 00:32:00,14.2,9.2,30.52,WNW,291,6.0,12.0,80,0.00,,,0.00,Wunderground v.1.15,2018-01-16 05:32:00,
2018-01-16 00:42:00,13.8,8.8,30.52,WNW,297,4.0,7.0,80,0.00,,,0.00,Wunderground v.1.15,2018-01-16 05:42:00,
2018-01-16 00:48:00,13.6,8.6,30.52,WNW,303,3.0,9.0,80,0.00,,,0.00,Wunderground v.1.15,2018-01-16 05:48:00,
2018-01-16 00:53:00,13.5,8.5,30.52,WNW,293,3.0,7.0,80,0.00,,,0.00,Wunderground v.1.15,2018-01-16 05:53:00,
2018-01-16 00:59:00,13.4,8.7,30.52,WNW,283,3.0,10.0,81,0.00,,,0.00,Wunderground v.1.15,2018-01-16 05:59:00,
2018-01-16 01:04:00,13.3,8.6,30.52,WNW,286,6.0,9.0,81,0.00,,,0.00,Wunderground v.1.15,2018-01-16 06:04:00,
2018-01-16 01:10:00,13.2,8.2,30.51,WNW,292,5.0,6.0,80,0.00,,,0.00,Wunderground v.1.15,2018-01-16 06:10:00,
2018-01-16 01:16:00,13.0,8.0,30.52,WNW,295,4.0,8.0,80,0.00,,,0.00,Wunderground v.1.15,2018-01-16 06:16:00,
2018-01-16 01:23:00,12.8,7.8,30.52,NW,314,5.0,6.0,80,0.00,,,0.00,Wunderground v.1.15,2018-01-16 06:23:00,
2018-01-16 01:28:00,12.6,7.3,30.53,North,5,9.0,11.0,79,0.00,,,0.00,Wunderground v.1.15,2018-01-16 06:28:00,
2018-01-16 01:33:00,12.4,6.8,30.52,NW,312,5.0,9.0,78,0.00,,,0.00,Wunderground v.1.15,2018-01-16 06:33:00,
2018-01-16 01:38:00,12.2,6.9,30.53,NW,322,1.0,10.0,79,0.00,,,0.00,Wunderground v.1.15,2018-01-16 06:38:00,
2018-01-16 01:44:00,12.1,6.8,30.53,WNW,298,13.0,13.0,79,0.00,,,0.00,Wunderground v.1.15,2018-01-16 06:44:00,
2018-01-16 01:49:00,12.0,6.7,30.54,NW,321,3.0,13.0,79,0.00,,,0.00,Wunderground v.1.15,2018-01-16 06:49:00,
2018-01-16 01:51:00,12.0,6.7,30.54,WNW,299,6.0,7.0,79,0.00,,,0.00,Wunderground v.1.15,2018-01-16 06:51:00,
2018-01-16 02:00:00,11.9,6.6,30.54,NW,317,3.0,4.0,79,0.00,,,0.00,Wunderground v.1.15,2018-01-16 07:00:00,
2018-01-16 02:13:00,11.6,6.3,30.55,NW,318,11.0,14.0,79,0.00,,,0.00,Wunderground v.1.15,2018-01-16 07:13:00,
2018-01-16 02:23:00,11.3,6.1,30.55,WNW,283,4.0,12.0,79,0.00,,,0.00,Wunderground v.1.15,2018-01-16 07:23:00,
2018-01-16 02:33:00,11.2,6.0,30.55,WNW,299,9.0,10.0,79,0.00,,,0.00,Wunderground v.1.15,2018-01-16 07:33:00,
2018-01-16 02:42:00,11.2,6.0,30.56,NW,322,1.0,7.0,79,0.00,,,0.00,Wunderground v.1.15,2018-01-16 07:42:00,
2018-01-16 02:53:00,11.2,6.2,30.55,NW,310,0.0,7.0,80,0.00,,,0.00,Wunderground v.1.15,2018-01-16 07:53:00,
2018-01-16 03:00:00,11.2,6.2,30.56,NW,312,9.0,9.0,80,0.00,,,0.00,Wunderground v.1.15,2018-01-16 08:00:00,
2018-01-16 03:14:00,10.9,5.9,30.56,West,275,5.0,6.0,80,0.00,,,0.00,Wunderground v.1.15,2018-01-16 08:14:00,
2018-01-16 03:22:00,10.7,5.7,30.56,WNW,285,8.0,11.0,80,0.00,,,0.00,Wunderground v.1.15,2018-01-16 08:22:00,
2018-01-16 03:27:00,10.6,5.4,30.56,NW,309,4.0,11.0,79,0.00,,,0.00,Wunderground v.1.15,2018-01-16 08:27:00,
2018-01-16 03:47:00,10.4,5.2,30.56,NW,317,6.0,7.0,79,0.00,,,0.00,Wunderground v.1.15,2018-01-16 08:47:00,
2018-01-16 03:52:00,10.3,5.4,30.57,NW,308,3.0,5.0,80,0.00,,,0.00,Wunderground v.1.15,2018-01-16 08:52:00,
2018-01-16 03:57:00,10.3,5.4,30.58,WNW,293,4.0,6.0,80,0.00,,,0.00,Wunderground v.1.15,2018-01-16 08:57:00,
2018-01-16 04:04:00,10.2,5.3,30.58,WNW,298,2.0,7.0,80,0.00,,,0.00,Wunderground v.1.15,2018-01-16 09:04:00,
2018-01-16 04:12:00,9.9,4.7,30.57,WNW,291,10.0,12.0,79,0.00,,,0.00,Wunderground v.1.15,2018-01-16 09:12:00,
2018-01-16 04:34:00,9.4,3.6,30.58,West,268,7.0,11.0,77,0.00,,,0.00,Wunderground v.1.15,2018-01-16 09:34:00,
2018-01-16 04:45:00,9.1,3.6,30.58,West,274,3.0,11.0,78,0.00,,,0.00,Wunderground v.1.15,2018-01-16 09:45:00,
2018-01-16 05:18:00,8.7,3.5,30.59,WSW,258,2.0,9.0,79,0.00,,,0.00,Wunderground v.1.15,2018-01-16 10:18:00,
2018-01-16 05:48:00,8.3,2.9,30.59,NW,315,4.0,9.0,78,0.00,,,0.00,Wunderground v.1.15,2018-01-16 10:48:00,
2018-01-16 06:09:00,8.0,2.6,30.60,NW,318,7.0,9.0,78,0.00,,,0.00,Wunderground v.1.15,2018-01-16 11:09:00,
2018-01-16 06:37:00,7.8,2.6,30.61,WNW,297,4.0,7.0,79,0.00,,,0.00,Wunderground v.1.15,2018-01-16 11:37:00,
2018-01-16 06:54:00,7.7,2.3,30.60,WNW,283,2.0,10.0,78,0.00,,,0.00,Wunderground v.1.15,2018-01-16 11:54:00,
2018-01-16 06:59:00,7.5,2.1,30.61,WNW,291,6.0,10.0,78,0.00,,,0.00,Wunderground v.1.15,2018-01-16 11:59:00,
2018-01-16 07:14:00,7.4,2.3,30.61,West,279,2.0,7.0,79,0.00,,,0.00,Wunderground v.1.15,2018-01-16 12:14:00,
2018-01-16 07:21:00,7.3,2.2,30.62,West,278,1.0,2.0,79,0.00,,,0.00,Wunderground v.1.15,2018-01-16 12:21:00,
2018-01-16 07:29:00,7.1,2.0,30.62,West,271,5.0,11.0,79,0.00,,,0.00,Wunderground v.1.15,2018-01-16 12:29:00,
2018-01-16 07:35:00,7.0,1.9,30.62,NW,322,4.0,7.0,79,0.00,,,0.00,Wunderground v.1.15,2018-01-16 12:35:00,
2018-01-16 07:40:00,6.9,1.8,30.62,WNW,287,4.0,6.0,79,0.00,,,0.00,Wunderground v.1.15,2018-01-16 12:40:00,
2018-01-16 07:47:00,6.8,1.7,30.63,WNW,295,4.0,7.0,79,0.00,,,0.00,Wunderground v.1.15,2018-01-16 12:47:00,
2018-01-16 07:54:00,6.7,1.6,30.63,WNW,286,4.0,11.0,79,0.00,,,0.00,Wunderground v.1.15,2018-01-16 12:54:00,
2018-01-16 08:03:00,6.5,1.6,30.63,WNW,292,3.0,5.0,80,0.00,,,0.00,Wunderground v.1.15,2018-01-16 13:03:00,
2018-01-16 08:09:00,6.5,1.6,30.63,NNW,347,0.0,7.0,80,0.00,,,0.00,Wunderground v.1.15,2018-01-16 13:09:00,
2018-01-16 08:22:00,6.4,1.5,30.63,WNW,294,4.0,5.0,80,0.00,,,0.00,Wunderground v.1.15,2018-01-16 13:22:00,
2018-01-16 08:28:00,6.3,1.4,30.64,West,279,3.0,6.0,80,0.00,,,0.00,Wunderground v.1.15,2018-01-16 13:28:00,
2018-01-16 08:34:00,6.3,1.4,30.63,NNW,337,0.0,5.0,80,0.00,,,0.00,Wunderground v.1.15,2018-01-16 13:34:00,
2018-01-16 08:45:00,6.3,1.4,30.64,West,278,5.0,9.0,80,0.00,,,0.00,Wunderground v.1.15,2018-01-16 13:45:00,
2018-01-16 08:52:00,6.3,1.4,30.64,WNW,286,6.0,11.0,80,0.00,,,0.00,Wunderground v.1.15,2018-01-16 13:52:00,
2018-01-16 09:03:00,6.2,1.4,30.64,WSW,254,2.0,8.0,80,0.00,,,0.00,Wunderground v.1.15,2018-01-16 14:03:00,